Weather at Austin Executive Airport

Public forecast

Using degrees Fahrenheit for public forecast. Weather courtesy of forecast.io.

Closest aviation weather report (METAR) to Austin Executive Airport

Closest report is Austin Bergstrom International Airport, 13.3 nm (24.7 km) SSW. Retrieved 2020/09/26 19:53 UTC (1 hour ago):

KAUS 261953Z 19011KT 10SM BKN039TCU BKN060 31/22 A2986 RMK AO2 SLP103 TCU SE T03060217

Closest aviation forecast (TAF) to Austin Executive Airport

Closest forecast is Austin Bergstrom International Airport, 13.3 nm (24.7 km) SSW. Retrieved 2020/09/26 18:30 UTC (2 hours ago):

TAF KAUS 261728Z 2618/2724 19010KT P6SM BKN025 FM261900 18009KT P6SM SCT035 FM270700 18009KT P6SM BKN013 FM271200 17009KT P6SM OVC008 FM271600 18013G23KT P6SM OVC012 FM271900 18013G23KT P6SM SCT018